sensor_id;sensor_type;location;lat;lon;timestamp;P1;durP1;ratioP1;P2;durP2;ratioP2
12024;SDS011;6073;53.230;10.444;2022-07-29T00:02:11;5.53;;;2.65;;
12024;SDS011;6073;53.230;10.444;2022-07-29T00:04:36;2.65;;;1.80;;
12024;SDS011;6073;53.230;10.444;2022-07-29T00:07:03;3.90;;;2.00;;
12024;SDS011;6073;53.230;10.444;2022-07-29T00:09:28;4.97;;;1.83;;
12024;SDS011;6073;53.230;10.444;2022-07-29T00:11:55;4.70;;;2.17;;
12024;SDS011;6073;53.230;10.444;2022-07-29T00:14:23;2.70;;;1.85;;
12024;SDS011;6073;53.230;10.444;2022-07-29T00:16:49;3.15;;;2.00;;
12024;SDS011;6073;53.230;10.444;2022-07-29T00:19:15;3.70;;;2.05;;
12024;SDS011;6073;53.230;10.444;2022-07-29T00:21:40;2.63;;;1.80;;
12024;SDS011;6073;53.230;10.444;2022-07-29T00:24:06;3.33;;;1.95;;
12024;SDS011;6073;53.230;10.444;2022-07-29T00:26:32;2.83;;;1.77;;
12024;SDS011;6073;53.230;10.444;2022-07-29T00:28:59;2.85;;;1.98;;
12024;SDS011;6073;53.230;10.444;2022-07-29T00:31:25;4.50;;;2.30;;
12024;SDS011;6073;53.230;10.444;2022-07-29T00:33:51;2.65;;;1.90;;
12024;SDS011;6073;53.230;10.444;2022-07-29T00:36:16;4.95;;;2.20;;
12024;SDS011;6073;53.230;10.444;2022-07-29T00:38:42;2.95;;;1.90;;
12024;SDS011;6073;53.230;10.444;2022-07-29T00:41:10;3.13;;;1.90;;
12024;SDS011;6073;53.230;10.444;2022-07-29T00:43:36;4.75;;;2.00;;
12024;SDS011;6073;53.230;10.444;2022-07-29T00:46:02;8.15;;;2.00;;
12024;SDS011;6073;53.230;10.444;2022-07-29T00:48:28;3.65;;;2.10;;
12024;SDS011;6073;53.230;10.444;2022-07-29T00:50:54;3.38;;;1.92;;
12024;SDS011;6073;53.230;10.444;2022-07-29T00:53:22;4.75;;;2.15;;
12024;SDS011;6073;53.230;10.444;2022-07-29T00:55:49;3.38;;;2.00;;
12024;SDS011;6073;53.230;10.444;2022-07-29T00:58:15;2.78;;;1.70;;
12024;SDS011;6073;53.230;10.444;2022-07-29T01:00:41;2.13;;;1.85;;
12024;SDS011;6073;53.230;10.444;2022-07-29T01:03:07;4.00;;;2.35;;
12024;SDS011;6073;53.230;10.444;2022-07-29T01:05:33;3.50;;;2.00;;
12024;SDS011;6073;53.230;10.444;2022-07-29T01:08:00;3.38;;;2.00;;
12024;SDS011;6073;53.230;10.444;2022-07-29T01:10:27;3.70;;;2.30;;
12024;SDS011;6073;53.230;10.444;2022-07-29T01:12:54;3.10;;;2.30;;
12024;SDS011;6073;53.230;10.444;2022-07-29T01:15:22;3.33;;;2.15;;
12024;SDS011;6073;53.230;10.444;2022-07-29T01:20:24;3.67;;;1.92;;
12024;SDS011;6073;53.230;10.444;2022-07-29T01:23:43;3.80;;;2.33;;
12024;SDS011;6073;53.230;10.444;2022-07-29T01:31:45;4.20;;;2.58;;
12024;SDS011;6073;53.230;10.444;2022-07-29T01:34:21;3.63;;;2.50;;
12024;SDS011;6073;53.230;10.444;2022-07-29T01:36:51;5.13;;;2.20;;
12024;SDS011;6073;53.230;10.444;2022-07-29T01:39:27;5.07;;;2.70;;
12024;SDS011;6073;53.230;10.444;2022-07-29T01:41:58;3.03;;;2.35;;
12024;SDS011;6073;53.230;10.444;2022-07-29T01:44:31;4.47;;;2.33;;
12024;SDS011;6073;53.230;10.444;2022-07-29T01:47:02;4.35;;;2.53;;
12024;SDS011;6073;53.230;10.444;2022-07-29T01:49:35;4.07;;;2.55;;
12024;SDS011;6073;53.230;10.444;2022-07-29T01:52:08;3.92;;;2.58;;
12024;SDS011;6073;53.230;10.444;2022-07-29T01:54:42;5.25;;;3.00;;
12024;SDS011;6073;53.230;10.444;2022-07-29T01:57:13;4.82;;;2.72;;
12024;SDS011;6073;53.230;10.444;2022-07-29T01:59:42;2.95;;;2.50;;
12024;SDS011;6073;53.230;10.444;2022-07-29T02:02:10;5.35;;;2.70;;
12024;SDS011;6073;53.230;10.444;2022-07-29T02:04:38;4.22;;;2.83;;
12024;SDS011;6073;53.230;10.444;2022-07-29T02:07:07;4.50;;;3.13;;
12024;SDS011;6073;53.230;10.444;2022-07-29T02:09:35;4.10;;;3.08;;
12024;SDS011;6073;53.230;10.444;2022-07-29T02:12:03;5.50;;;3.08;;
12024;SDS011;6073;53.230;10.444;2022-07-29T02:14:32;6.93;;;3.08;;
12024;SDS011;6073;53.230;10.444;2022-07-29T02:17:02;5.00;;;2.97;;
12024;SDS011;6073;53.230;10.444;2022-07-29T02:19:29;3.88;;;2.58;;
12024;SDS011;6073;53.230;10.444;2022-07-29T02:21:57;2.92;;;2.45;;
12024;SDS011;6073;53.230;10.444;2022-07-29T02:24:25;5.10;;;2.50;;
12024;SDS011;6073;53.230;10.444;2022-07-29T02:26:52;6.90;;;2.50;;
12024;SDS011;6073;53.230;10.444;2022-07-29T02:29:25;3.75;;;2.33;;
12024;SDS011;6073;53.230;10.444;2022-07-29T02:31:53;4.72;;;2.05;;
12024;SDS011;6073;53.230;10.444;2022-07-29T02:34:20;4.60;;;2.20;;
12024;SDS011;6073;53.230;10.444;2022-07-29T02:36:46;3.08;;;1.98;;
12024;SDS011;6073;53.230;10.444;2022-07-29T02:39:14;2.53;;;2.30;;
12024;SDS011;6073;53.230;10.444;2022-07-29T02:44:18;2.85;;;2.17;;
12024;SDS011;6073;53.230;10.444;2022-07-29T02:46:53;3.05;;;2.10;;
12024;SDS011;6073;53.230;10.444;2022-07-29T02:49:42;2.88;;;2.10;;
12024;SDS011;6073;53.230;10.444;2022-07-29T02:55:09;2.80;;;2.40;;
12024;SDS011;6073;53.230;10.444;2022-07-29T02:58:03;2.60;;;2.20;;
12024;SDS011;6073;53.230;10.444;2022-07-29T03:00:28;6.32;;;2.60;;
12024;SDS011;6073;53.230;10.444;2022-07-29T03:02:56;3.40;;;2.50;;
12024;SDS011;6073;53.230;10.444;2022-07-29T03:05:25;4.18;;;2.13;;
12024;SDS011;6073;53.230;10.444;2022-07-29T03:08:01;4.00;;;2.50;;
12024;SDS011;6073;53.230;10.444;2022-07-29T03:10:29;3.83;;;2.38;;
12024;SDS011;6073;53.230;10.444;2022-07-29T03:12:56;3.20;;;2.33;;
12024;SDS011;6073;53.230;10.444;2022-07-29T03:15:22;2.83;;;2.58;;
12024;SDS011;6073;53.230;10.444;2022-07-29T03:18:00;2.65;;;2.22;;
12024;SDS011;6073;53.230;10.444;2022-07-29T03:20:27;5.47;;;2.50;;
12024;SDS011;6073;53.230;10.444;2022-07-29T03:22:52;3.90;;;2.22;;
12024;SDS011;6073;53.230;10.444;2022-07-29T03:25:18;3.70;;;2.35;;
12024;SDS011;6073;53.230;10.444;2022-07-29T03:27:45;4.15;;;2.17;;
12024;SDS011;6073;53.230;10.444;2022-07-29T03:30:11;2.67;;;2.13;;
12024;SDS011;6073;53.230;10.444;2022-07-29T03:32:38;3.90;;;2.22;;
12024;SDS011;6073;53.230;10.444;2022-07-29T03:35:04;2.35;;;2.08;;
12024;SDS011;6073;53.230;10.444;2022-07-29T03:37:31;3.90;;;2.53;;
12024;SDS011;6073;53.230;10.444;2022-07-29T03:39:58;3.53;;;2.13;;
12024;SDS011;6073;53.230;10.444;2022-07-29T03:42:29;5.07;;;2.20;;
12024;SDS011;6073;53.230;10.444;2022-07-29T03:44:58;4.93;;;2.45;;
12024;SDS011;6073;53.230;10.444;2022-07-29T03:47:28;5.25;;;2.30;;
12024;SDS011;6073;53.230;10.444;2022-07-29T03:49:57;2.80;;;2.25;;
12024;SDS011;6073;53.230;10.444;2022-07-29T03:52:26;2.83;;;2.40;;
12024;SDS011;6073;53.230;10.444;2022-07-29T03:54:53;4.10;;;1.90;;
12024;SDS011;6073;53.230;10.444;2022-07-29T03:57:22;3.60;;;2.33;;
12024;SDS011;6073;53.230;10.444;2022-07-29T03:59:50;3.47;;;2.03;;
12024;SDS011;6073;53.230;10.444;2022-07-29T04:02:17;3.85;;;2.20;;
12024;SDS011;6073;53.230;10.444;2022-07-29T04:04:43;4.15;;;2.10;;
12024;SDS011;6073;53.230;10.444;2022-07-29T04:07:11;5.95;;;2.30;;
12024;SDS011;6073;53.230;10.444;2022-07-29T04:09:37;2.88;;;2.40;;
12024;SDS011;6073;53.230;10.444;2022-07-29T04:12:03;3.95;;;1.95;;
12024;SDS011;6073;53.230;10.444;2022-07-29T04:14:30;3.67;;;2.58;;
12024;SDS011;6073;53.230;10.444;2022-07-29T04:16:56;5.20;;;2.40;;
12024;SDS011;6073;53.230;10.444;2022-07-29T04:19:22;8.27;;;3.08;;
12024;SDS011;6073;53.230;10.444;2022-07-29T04:21:47;3.60;;;2.65;;
12024;SDS011;6073;53.230;10.444;2022-07-29T04:24:14;5.40;;;2.50;;
12024;SDS011;6073;53.230;10.444;2022-07-29T04:26:40;5.60;;;2.70;;
12024;SDS011;6073;53.230;10.444;2022-07-29T04:29:05;3.92;;;2.80;;
12024;SDS011;6073;53.230;10.444;2022-07-29T04:31:31;5.00;;;2.65;;
12024;SDS011;6073;53.230;10.444;2022-07-29T04:33:56;3.83;;;2.83;;
12024;SDS011;6073;53.230;10.444;2022-07-29T04:36:22;3.20;;;2.53;;
12024;SDS011;6073;53.230;10.444;2022-07-29T04:38:48;3.97;;;2.63;;
12024;SDS011;6073;53.230;10.444;2022-07-29T04:41:13;6.45;;;2.90;;
12024;SDS011;6073;53.230;10.444;2022-07-29T04:43:39;3.85;;;2.45;;
12024;SDS011;6073;53.230;10.444;2022-07-29T04:46:05;6.75;;;2.70;;
12024;SDS011;6073;53.230;10.444;2022-07-29T04:48:32;5.15;;;2.70;;
12024;SDS011;6073;53.230;10.444;2022-07-29T04:50:57;4.05;;;2.80;;
12024;SDS011;6073;53.230;10.444;2022-07-29T04:53:23;2.70;;;2.25;;
12024;SDS011;6073;53.230;10.444;2022-07-29T04:55:51;2.70;;;2.25;;
12024;SDS011;6073;53.230;10.444;2022-07-29T04:58:16;3.72;;;2.38;;
12024;SDS011;6073;53.230;10.444;2022-07-29T05:00:42;4.72;;;2.45;;
12024;SDS011;6073;53.230;10.444;2022-07-29T05:03:07;4.40;;;2.22;;
12024;SDS011;6073;53.230;10.444;2022-07-29T05:05:33;5.15;;;2.10;;
12024;SDS011;6073;53.230;10.444;2022-07-29T05:07:59;3.85;;;2.53;;
12024;SDS011;6073;53.230;10.444;2022-07-29T05:10:24;5.85;;;2.60;;
12024;SDS011;6073;53.230;10.444;2022-07-29T05:12:50;3.95;;;2.28;;
12024;SDS011;6073;53.230;10.444;2022-07-29T05:15:16;5.20;;;2.42;;
12024;SDS011;6073;53.230;10.444;2022-07-29T05:17:42;3.65;;;2.20;;
12024;SDS011;6073;53.230;10.444;2022-07-29T05:20:08;3.67;;;2.22;;
12024;SDS011;6073;53.230;10.444;2022-07-29T05:22:34;2.40;;;2.00;;
12024;SDS011;6073;53.230;10.444;2022-07-29T05:25:00;4.45;;;2.47;;
12024;SDS011;6073;53.230;10.444;2022-07-29T05:27:26;3.92;;;2.58;;
12024;SDS011;6073;53.230;10.444;2022-07-29T05:29:51;2.55;;;2.30;;
12024;SDS011;6073;53.230;10.444;2022-07-29T05:32:17;4.65;;;2.38;;
12024;SDS011;6073;53.230;10.444;2022-07-29T05:34:43;4.65;;;2.45;;
12024;SDS011;6073;53.230;10.444;2022-07-29T05:37:08;3.38;;;2.17;;
12024;SDS011;6073;53.230;10.444;2022-07-29T05:39:34;6.32;;;2.40;;
12024;SDS011;6073;53.230;10.444;2022-07-29T05:42:00;4.20;;;2.47;;
12024;SDS011;6073;53.230;10.444;2022-07-29T05:44:25;4.50;;;2.58;;
12024;SDS011;6073;53.230;10.444;2022-07-29T05:46:51;3.92;;;2.65;;
12024;SDS011;6073;53.230;10.444;2022-07-29T05:49:16;4.38;;;2.60;;
12024;SDS011;6073;53.230;10.444;2022-07-29T05:51:43;3.42;;;2.40;;
12024;SDS011;6073;53.230;10.444;2022-07-29T05:54:09;3.80;;;2.80;;
12024;SDS011;6073;53.230;10.444;2022-07-29T05:56:35;3.72;;;2.47;;
12024;SDS011;6073;53.230;10.444;2022-07-29T05:59:01;3.45;;;3.05;;
12024;SDS011;6073;53.230;10.444;2022-07-29T06:01:28;4.82;;;3.20;;
12024;SDS011;6073;53.230;10.444;2022-07-29T06:03:53;7.55;;;2.55;;
12024;SDS011;6073;53.230;10.444;2022-07-29T06:06:19;4.75;;;2.40;;
12024;SDS011;6073;53.230;10.444;2022-07-29T06:08:45;6.85;;;3.00;;
12024;SDS011;6073;53.230;10.444;2022-07-29T06:11:10;6.55;;;3.05;;
12024;SDS011;6073;53.230;10.444;2022-07-29T06:13:36;3.72;;;2.70;;
12024;SDS011;6073;53.230;10.444;2022-07-29T06:16:02;6.50;;;2.70;;
12024;SDS011;6073;53.230;10.444;2022-07-29T06:18:27;5.55;;;2.60;;
12024;SDS011;6073;53.230;10.444;2022-07-29T06:20:53;6.25;;;2.70;;
12024;SDS011;6073;53.230;10.444;2022-07-29T06:23:19;6.45;;;2.65;;
12024;SDS011;6073;53.230;10.444;2022-07-29T06:25:48;5.47;;;3.00;;
12024;SDS011;6073;53.230;10.444;2022-07-29T06:28:13;6.18;;;2.72;;
12024;SDS011;6073;53.230;10.444;2022-07-29T06:30:44;6.20;;;3.40;;
12024;SDS011;6073;53.230;10.444;2022-07-29T06:33:15;7.93;;;2.75;;
12024;SDS011;6073;53.230;10.444;2022-07-29T06:35:44;4.68;;;2.83;;
12024;SDS011;6073;53.230;10.444;2022-07-29T06:38:12;5.70;;;2.83;;
12024;SDS011;6073;53.230;10.444;2022-07-29T06:40:47;6.00;;;3.03;;
12024;SDS011;6073;53.230;10.444;2022-07-29T06:43:25;6.85;;;2.80;;
12024;SDS011;6073;53.230;10.444;2022-07-29T06:45:51;4.80;;;3.33;;
12024;SDS011;6073;53.230;10.444;2022-07-29T06:48:20;5.07;;;2.80;;
12024;SDS011;6073;53.230;10.444;2022-07-29T06:50:48;5.47;;;3.05;;
12024;SDS011;6073;53.230;10.444;2022-07-29T06:53:14;6.00;;;2.60;;
12024;SDS011;6073;53.230;10.444;2022-07-29T06:55:42;7.32;;;3.10;;
12024;SDS011;6073;53.230;10.444;2022-07-29T06:58:08;4.43;;;2.42;;
12024;SDS011;6073;53.230;10.444;2022-07-29T07:00:34;5.50;;;2.72;;
12024;SDS011;6073;53.230;10.444;2022-07-29T07:03:00;3.35;;;2.58;;
12024;SDS011;6073;53.230;10.444;2022-07-29T07:05:26;3.28;;;2.20;;
12024;SDS011;6073;53.230;10.444;2022-07-29T07:07:51;3.75;;;2.35;;
12024;SDS011;6073;53.230;10.444;2022-07-29T07:10:19;2.85;;;2.40;;
12024;SDS011;6073;53.230;10.444;2022-07-29T07:12:48;7.53;;;2.33;;
12024;SDS011;6073;53.230;10.444;2022-07-29T07:15:13;3.60;;;2.00;;
12024;SDS011;6073;53.230;10.444;2022-07-29T07:17:39;6.70;;;2.60;;
12024;SDS011;6073;53.230;10.444;2022-07-29T07:20:08;4.53;;;2.65;;
12024;SDS011;6073;53.230;10.444;2022-07-29T07:22:37;6.50;;;2.67;;
12024;SDS011;6073;53.230;10.444;2022-07-29T07:25:06;4.38;;;2.28;;
12024;SDS011;6073;53.230;10.444;2022-07-29T07:27:35;3.83;;;2.40;;
12024;SDS011;6073;53.230;10.444;2022-07-29T07:30:01;4.85;;;2.33;;
12024;SDS011;6073;53.230;10.444;2022-07-29T07:32:32;4.15;;;2.47;;
12024;SDS011;6073;53.230;10.444;2022-07-29T07:35:01;2.75;;;2.08;;
12024;SDS011;6073;53.230;10.444;2022-07-29T07:37:27;5.35;;;2.45;;
12024;SDS011;6073;53.230;10.444;2022-07-29T07:39:53;3.40;;;1.95;;
12024;SDS011;6073;53.230;10.444;2022-07-29T07:42:23;4.90;;;2.38;;
12024;SDS011;6073;53.230;10.444;2022-07-29T07:44:48;4.13;;;2.30;;
12024;SDS011;6073;53.230;10.444;2022-07-29T07:47:14;5.47;;;2.10;;
12024;SDS011;6073;53.230;10.444;2022-07-29T07:49:44;4.68;;;2.17;;
12024;SDS011;6073;53.230;10.444;2022-07-29T07:52:13;5.10;;;2.53;;
12024;SDS011;6073;53.230;10.444;2022-07-29T07:54:43;4.70;;;2.10;;
12024;SDS011;6073;53.230;10.444;2022-07-29T07:57:12;5.65;;;2.28;;
12024;SDS011;6073;53.230;10.444;2022-07-29T07:59:38;4.80;;;2.00;;
12024;SDS011;6073;53.230;10.444;2022-07-29T08:02:07;4.57;;;2.30;;
12024;SDS011;6073;53.230;10.444;2022-07-29T08:04:33;5.18;;;2.10;;
12024;SDS011;6073;53.230;10.444;2022-07-29T08:07:02;3.47;;;2.28;;
12024;SDS011;6073;53.230;10.444;2022-07-29T08:09:28;3.35;;;2.17;;
12024;SDS011;6073;53.230;10.444;2022-07-29T08:11:57;4.13;;;2.20;;
12024;SDS011;6073;53.230;10.444;2022-07-29T08:14:24;5.22;;;2.10;;
12024;SDS011;6073;53.230;10.444;2022-07-29T08:16:49;3.67;;;2.25;;
12024;SDS011;6073;53.230;10.444;2022-07-29T08:19:18;5.90;;;2.38;;
12024;SDS011;6073;53.230;10.444;2022-07-29T08:21:47;4.25;;;2.17;;
12024;SDS011;6073;53.230;10.444;2022-07-29T08:24:12;3.53;;;2.17;;
12024;SDS011;6073;53.230;10.444;2022-07-29T08:26:56;3.65;;;2.35;;
12024;SDS011;6073;53.230;10.444;2022-07-29T08:29:23;3.72;;;1.95;;
12024;SDS011;6073;53.230;10.444;2022-07-29T08:31:55;4.28;;;2.20;;
12024;SDS011;6073;53.230;10.444;2022-07-29T08:34:23;3.13;;;2.15;;
12024;SDS011;6073;53.230;10.444;2022-07-29T08:36:49;4.55;;;2.00;;
12024;SDS011;6073;53.230;10.444;2022-07-29T08:39:20;3.97;;;1.70;;
12024;SDS011;6073;53.230;10.444;2022-07-29T08:41:52;3.60;;;2.13;;
12024;SDS011;6073;53.230;10.444;2022-07-29T08:44:18;3.72;;;1.80;;
12024;SDS011;6073;53.230;10.444;2022-07-29T08:46:44;4.72;;;2.00;;
12024;SDS011;6073;53.230;10.444;2022-07-29T08:49:10;3.75;;;2.10;;
12024;SDS011;6073;53.230;10.444;2022-07-29T08:51:36;4.00;;;1.90;;
12024;SDS011;6073;53.230;10.444;2022-07-29T08:54:04;3.13;;;1.80;;
12024;SDS011;6073;53.230;10.444;2022-07-29T08:56:31;5.55;;;2.40;;
12024;SDS011;6073;53.230;10.444;2022-07-29T08:59:02;2.78;;;1.80;;
12024;SDS011;6073;53.230;10.444;2022-07-29T09:01:29;3.05;;;1.90;;
12024;SDS011;6073;53.230;10.444;2022-07-29T09:03:56;4.40;;;1.98;;
12024;SDS011;6073;53.230;10.444;2022-07-29T09:06:29;3.65;;;1.80;;
12024;SDS011;6073;53.230;10.444;2022-07-29T09:09:04;3.63;;;1.80;;
12024;SDS011;6073;53.230;10.444;2022-07-29T09:11:35;8.10;;;2.10;;
12024;SDS011;6073;53.230;10.444;2022-07-29T09:14:01;3.33;;;1.80;;
12024;SDS011;6073;53.230;10.444;2022-07-29T09:16:49;4.32;;;2.20;;
12024;SDS011;6073;53.230;10.444;2022-07-29T09:19:28;3.38;;;1.63;;
12024;SDS011;6073;53.230;10.444;2022-07-29T09:22:04;3.95;;;2.28;;
12024;SDS011;6073;53.230;10.444;2022-07-29T09:27:00;2.33;;;2.00;;
12024;SDS011;6073;53.230;10.444;2022-07-29T09:29:27;4.72;;;2.00;;
12024;SDS011;6073;53.230;10.444;2022-07-29T09:31:56;5.13;;;2.00;;
12024;SDS011;6073;53.230;10.444;2022-07-29T09:34:26;2.78;;;1.90;;
12024;SDS011;6073;53.230;10.444;2022-07-29T09:36:56;2.53;;;2.10;;
12024;SDS011;6073;53.230;10.444;2022-07-29T09:39:38;2.40;;;1.63;;
12024;SDS011;6073;53.230;10.444;2022-07-29T09:42:11;3.42;;;1.77;;
12024;SDS011;6073;53.230;10.444;2022-07-29T09:44:52;4.10;;;1.98;;
12024;SDS011;6073;53.230;10.444;2022-07-29T09:47:18;3.03;;;1.80;;
12024;SDS011;6073;53.230;10.444;2022-07-29T09:49:50;5.78;;;2.00;;
12024;SDS011;6073;53.230;10.444;2022-07-29T09:52:24;3.50;;;1.80;;
12024;SDS011;6073;53.230;10.444;2022-07-29T09:54:51;5.25;;;2.05;;
12024;SDS011;6073;53.230;10.444;2022-07-29T09:57:26;3.35;;;1.88;;
12024;SDS011;6073;53.230;10.444;2022-07-29T10:00:05;4.60;;;1.90;;
12024;SDS011;6073;53.230;10.444;2022-07-29T10:02:40;4.05;;;2.03;;
12024;SDS011;6073;53.230;10.444;2022-07-29T10:05:23;5.63;;;2.03;;
12024;SDS011;6073;53.230;10.444;2022-07-29T10:07:52;3.97;;;1.88;;
12024;SDS011;6073;53.230;10.444;2022-07-29T10:10:22;5.10;;;2.00;;
12024;SDS011;6073;53.230;10.444;2022-07-29T10:15:21;5.45;;;2.20;;
12024;SDS011;6073;53.230;10.444;2022-07-29T10:17:52;4.88;;;2.10;;
12024;SDS011;6073;53.230;10.444;2022-07-29T10:20:19;6.20;;;1.83;;
12024;SDS011;6073;53.230;10.444;2022-07-29T10:22:46;4.90;;;1.98;;
12024;SDS011;6073;53.230;10.444;2022-07-29T10:25:12;5.03;;;2.03;;
12024;SDS011;6073;53.230;10.444;2022-07-29T10:27:39;4.28;;;2.00;;
12024;SDS011;6073;53.230;10.444;2022-07-29T10:30:05;2.45;;;1.50;;
12024;SDS011;6073;53.230;10.444;2022-07-29T10:32:39;3.03;;;1.75;;
12024;SDS011;6073;53.230;10.444;2022-07-29T10:38:30;4.35;;;2.10;;
12024;SDS011;6073;53.230;10.444;2022-07-29T10:41:23;8.10;;;2.13;;
12024;SDS011;6073;53.230;10.444;2022-07-29T10:46:50;4.05;;;1.95;;
12024;SDS011;6073;53.230;10.444;2022-07-29T10:49:19;3.60;;;2.15;;
12024;SDS011;6073;53.230;10.444;2022-07-29T10:51:55;4.53;;;1.65;;
12024;SDS011;6073;53.230;10.444;2022-07-29T10:59:41;3.63;;;1.88;;
12024;SDS011;6073;53.230;10.444;2022-07-29T11:07:24;4.90;;;1.85;;
12024;SDS011;6073;53.230;10.444;2022-07-29T11:15:10;3.88;;;1.70;;
12024;SDS011;6073;53.230;10.444;2022-07-29T11:31:38;2.40;;;1.50;;
12024;SDS011;6073;53.230;10.444;2022-07-29T11:34:15;2.25;;;1.45;;
12024;SDS011;6073;53.230;10.444;2022-07-29T11:40:08;7.05;;;2.30;;
12024;SDS011;6073;53.230;10.444;2022-07-29T11:44:56;2.30;;;1.67;;
12024;SDS011;6073;53.230;10.444;2022-07-29T11:47:26;2.55;;;1.63;;
12024;SDS011;6073;53.230;10.444;2022-07-29T11:49:53;5.45;;;1.88;;
12024;SDS011;6073;53.230;10.444;2022-07-29T11:52:30;2.42;;;1.60;;
12024;SDS011;6073;53.230;10.444;2022-07-29T11:54:58;3.30;;;1.88;;
12024;SDS011;6073;53.230;10.444;2022-07-29T11:57:27;2.90;;;1.80;;
12024;SDS011;6073;53.230;10.444;2022-07-29T11:59:53;3.65;;;1.90;;
12024;SDS011;6073;53.230;10.444;2022-07-29T12:02:22;4.10;;;1.85;;
12024;SDS011;6073;53.230;10.444;2022-07-29T12:04:52;5.07;;;2.15;;
12024;SDS011;6073;53.230;10.444;2022-07-29T12:09:54;3.80;;;1.80;;
12024;SDS011;6073;53.230;10.444;2022-07-29T12:12:20;6.05;;;2.00;;
12024;SDS011;6073;53.230;10.444;2022-07-29T12:14:47;4.43;;;2.10;;
12024;SDS011;6073;53.230;10.444;2022-07-29T12:17:30;2.13;;;1.65;;
12024;SDS011;6073;53.230;10.444;2022-07-29T12:20:03;2.58;;;1.52;;
12024;SDS011;6073;53.230;10.444;2022-07-29T12:22:30;3.05;;;1.73;;
12024;SDS011;6073;53.230;10.444;2022-07-29T12:27:36;2.97;;;1.80;;
12024;SDS011;6073;53.230;10.444;2022-07-29T12:30:04;4.13;;;2.03;;
12024;SDS011;6073;53.230;10.444;2022-07-29T12:32:34;3.80;;;2.03;;
12024;SDS011;6073;53.230;10.444;2022-07-29T12:35:04;7.22;;;2.25;;
12024;SDS011;6073;53.230;10.444;2022-07-29T12:37:35;4.10;;;1.70;;
12024;SDS011;6073;53.230;10.444;2022-07-29T12:40:03;3.95;;;1.67;;
12024;SDS011;6073;53.230;10.444;2022-07-29T12:42:30;2.97;;;2.10;;
12024;SDS011;6073;53.230;10.444;2022-07-29T12:44:56;4.35;;;1.90;;
12024;SDS011;6073;53.230;10.444;2022-07-29T12:47:22;4.50;;;2.33;;
12024;SDS011;6073;53.230;10.444;2022-07-29T12:49:48;7.05;;;2.28;;
12024;SDS011;6073;53.230;10.444;2022-07-29T12:54:56;6.40;;;2.17;;
12024;SDS011;6073;53.230;10.444;2022-07-29T12:57:22;5.57;;;2.20;;
12024;SDS011;6073;53.230;10.444;2022-07-29T13:00:02;2.53;;;2.00;;
12024;SDS011;6073;53.230;10.444;2022-07-29T13:02:34;5.45;;;2.05;;
12024;SDS011;6073;53.230;10.444;2022-07-29T13:05:00;4.45;;;1.90;;
12024;SDS011;6073;53.230;10.444;2022-07-29T13:07:27;3.95;;;1.90;;
12024;SDS011;6073;53.230;10.444;2022-07-29T13:10:10;2.75;;;1.80;;
12024;SDS011;6073;53.230;10.444;2022-07-29T13:12:40;4.72;;;1.98;;
12024;SDS011;6073;53.230;10.444;2022-07-29T13:15:42;2.83;;;2.00;;
12024;SDS011;6073;53.230;10.444;2022-07-29T13:18:30;4.72;;;2.13;;
12024;SDS011;6073;53.230;10.444;2022-07-29T13:21:13;3.50;;;1.75;;
12024;SDS011;6073;53.230;10.444;2022-07-29T13:23:40;4.65;;;1.83;;
12024;SDS011;6073;53.230;10.444;2022-07-29T13:26:09;4.15;;;2.17;;
12024;SDS011;6073;53.230;10.444;2022-07-29T13:28:38;5.63;;;2.40;;
12024;SDS011;6073;53.230;10.444;2022-07-29T13:31:04;3.50;;;2.08;;
12024;SDS011;6073;53.230;10.444;2022-07-29T13:33:30;5.45;;;2.15;;
12024;SDS011;6073;53.230;10.444;2022-07-29T13:35:58;3.03;;;1.90;;
12024;SDS011;6073;53.230;10.444;2022-07-29T13:38:25;2.42;;;1.98;;
12024;SDS011;6073;53.230;10.444;2022-07-29T13:40:52;4.32;;;1.63;;
12024;SDS011;6073;53.230;10.444;2022-07-29T13:43:17;4.50;;;2.00;;
12024;SDS011;6073;53.230;10.444;2022-07-29T13:45:44;4.65;;;2.25;;
12024;SDS011;6073;53.230;10.444;2022-07-29T13:48:10;3.75;;;1.90;;
12024;SDS011;6073;53.230;10.444;2022-07-29T13:50:36;3.03;;;1.92;;
12024;SDS011;6073;53.230;10.444;2022-07-29T13:53:04;3.15;;;2.05;;
12024;SDS011;6073;53.230;10.444;2022-07-29T13:55:30;3.40;;;2.00;;
12024;SDS011;6073;53.230;10.444;2022-07-29T13:57:58;5.55;;;2.30;;
12024;SDS011;6073;53.230;10.444;2022-07-29T14:00:25;4.93;;;2.10;;
12024;SDS011;6073;53.230;10.444;2022-07-29T14:03:02;3.88;;;2.10;;
12024;SDS011;6073;53.230;10.444;2022-07-29T14:05:29;4.20;;;2.13;;
12024;SDS011;6073;53.230;10.444;2022-07-29T14:07:55;5.00;;;2.30;;
12024;SDS011;6073;53.230;10.444;2022-07-29T14:10:20;3.00;;;2.10;;
12024;SDS011;6073;53.230;10.444;2022-07-29T14:12:49;2.75;;;2.00;;
12024;SDS011;6073;53.230;10.444;2022-07-29T14:15:14;3.70;;;1.75;;
12024;SDS011;6073;53.230;10.444;2022-07-29T14:17:40;4.30;;;2.08;;
12024;SDS011;6073;53.230;10.444;2022-07-29T14:20:06;2.17;;;1.92;;
12024;SDS011;6073;53.230;10.444;2022-07-29T14:22:34;3.80;;;2.30;;
12024;SDS011;6073;53.230;10.444;2022-07-29T14:25:00;3.95;;;2.38;;
12024;SDS011;6073;53.230;10.444;2022-07-29T14:27:38;4.32;;;2.30;;
12024;SDS011;6073;53.230;10.444;2022-07-29T14:30:04;3.63;;;2.25;;
12024;SDS011;6073;53.230;10.444;2022-07-29T14:32:31;3.63;;;1.90;;
12024;SDS011;6073;53.230;10.444;2022-07-29T14:34:56;2.95;;;2.30;;
12024;SDS011;6073;53.230;10.444;2022-07-29T14:37:22;3.60;;;2.00;;
12024;SDS011;6073;53.230;10.444;2022-07-29T14:39:48;3.45;;;2.22;;
12024;SDS011;6073;53.230;10.444;2022-07-29T14:42:19;3.28;;;2.00;;
12024;SDS011;6073;53.230;10.444;2022-07-29T14:44:47;3.90;;;2.20;;
12024;SDS011;6073;53.230;10.444;2022-07-29T14:47:14;2.55;;;1.88;;
12024;SDS011;6073;53.230;10.444;2022-07-29T14:49:42;2.50;;;2.00;;
12024;SDS011;6073;53.230;10.444;2022-07-29T14:52:08;3.78;;;1.95;;
12024;SDS011;6073;53.230;10.444;2022-07-29T14:54:34;6.05;;;2.53;;
12024;SDS011;6073;53.230;10.444;2022-07-29T14:57:03;2.95;;;2.08;;
12024;SDS011;6073;53.230;10.444;2022-07-29T14:59:28;3.13;;;1.95;;
12024;SDS011;6073;53.230;10.444;2022-07-29T15:01:57;2.78;;;1.85;;
12024;SDS011;6073;53.230;10.444;2022-07-29T15:04:23;4.10;;;2.13;;
12024;SDS011;6073;53.230;10.444;2022-07-29T15:06:51;6.82;;;2.50;;
12024;SDS011;6073;53.230;10.444;2022-07-29T15:09:19;6.95;;;2.78;;
12024;SDS011;6073;53.230;10.444;2022-07-29T15:11:50;4.05;;;2.20;;
12024;SDS011;6073;53.230;10.444;2022-07-29T15:14:16;5.75;;;2.10;;
12024;SDS011;6073;53.230;10.444;2022-07-29T15:16:41;4.38;;;2.22;;
12024;SDS011;6073;53.230;10.444;2022-07-29T15:19:10;3.33;;;1.90;;
12024;SDS011;6073;53.230;10.444;2022-07-29T15:21:35;5.32;;;1.98;;
12024;SDS011;6073;53.230;10.444;2022-07-29T15:24:01;4.22;;;2.30;;
12024;SDS011;6073;53.230;10.444;2022-07-29T15:26:27;3.80;;;2.17;;
12024;SDS011;6073;53.230;10.444;2022-07-29T15:28:53;3.17;;;2.13;;
12024;SDS011;6073;53.230;10.444;2022-07-29T15:31:22;4.85;;;1.88;;
12024;SDS011;6073;53.230;10.444;2022-07-29T15:33:50;2.05;;;1.80;;
12024;SDS011;6073;53.230;10.444;2022-07-29T15:36:22;2.13;;;2.00;;
12024;SDS011;6073;53.230;10.444;2022-07-29T15:38:56;2.65;;;1.90;;
12024;SDS011;6073;53.230;10.444;2022-07-29T15:41:25;5.22;;;2.17;;
12024;SDS011;6073;53.230;10.444;2022-07-29T15:43:53;2.38;;;1.92;;
12024;SDS011;6073;53.230;10.444;2022-07-29T15:46:21;4.07;;;2.08;;
12024;SDS011;6073;53.230;10.444;2022-07-29T15:49:06;4.30;;;1.98;;
12024;SDS011;6073;53.230;10.444;2022-07-29T15:51:32;2.50;;;1.95;;
12024;SDS011;6073;53.230;10.444;2022-07-29T15:54:03;6.05;;;2.55;;
12024;SDS011;6073;53.230;10.444;2022-07-29T15:56:30;3.95;;;1.90;;
12024;SDS011;6073;53.230;10.444;2022-07-29T15:58:56;3.80;;;2.13;;
12024;SDS011;6073;53.230;10.444;2022-07-29T16:01:22;3.80;;;2.08;;
12024;SDS011;6073;53.230;10.444;2022-07-29T16:03:49;2.88;;;2.00;;
12024;SDS011;6073;53.230;10.444;2022-07-29T16:06:15;5.82;;;2.22;;